Terminal Aerodrome Forecast
Issued by NWS

Home | Current Version | Previous Version | Graphics & Text | Print | Product List | Glossary On
Versions: 1 2 3 4 5 6 7 8 9 10 11 12 13 14 15 16 17 18 19 20 21 22 23 24 25 26 27 28 29 30 31 32
000
FTUS43 KLOT 182335
TAFORD
TAF
KORD 182335Z 1900/2006 34017G27KT P6SM OVC021
     FM190200 32015G23KT P6SM BKN023
     FM190800 31013G20KT P6SM BKN025
     FM191500 29012G18KT P6SM SCT200
     FM192300 25007KT P6SM SCT200=

USA.gov is the U.S. government's official web portal to all federal, state and local government web resources and services.